createdAt,value
2019-05-22T00:05:43.498Z,11.63
2019-05-22T00:08:24.346Z,13.00
2019-05-22T00:11:04.994Z,12.63
2019-05-22T00:13:47.692Z,12.23
2019-05-22T00:16:30.246Z,13.37
2019-05-22T00:19:11.377Z,13.30
2019-05-22T00:21:54.050Z,13.63
2019-05-22T00:24:35.376Z,13.37
2019-05-22T00:27:17.270Z,13.13
2019-05-22T00:29:59.013Z,12.97
2019-05-22T00:32:40.070Z,15.33
2019-05-22T00:35:22.506Z,14.30
2019-05-22T00:38:05.193Z,14.93
2019-05-22T00:43:39.806Z,16.47
2019-05-22T00:46:21.060Z,13.07
2019-05-22T00:49:01.918Z,7.93
2019-05-22T00:51:47.008Z,9.37
2019-05-22T00:54:46.802Z,12.80
2019-05-22T00:57:28.882Z,11.37
2019-05-22T01:00:14.459Z,11.47
2019-05-22T01:02:56.354Z,15.13
2019-05-22T01:05:38.505Z,14.50
2019-05-22T01:08:21.358Z,11.90
2019-05-22T01:11:03.926Z,11.30
2019-05-22T01:13:46.614Z,14.57
2019-05-22T01:16:27.541Z,13.53
2019-05-22T01:19:08.250Z,14.23
2019-05-22T01:21:50.515Z,15.50
2019-05-22T01:24:31.284Z,15.87
2019-05-22T01:27:12.699Z,15.93
2019-05-22T01:29:55.486Z,14.17
2019-05-22T01:32:55.787Z,17.10
2019-05-22T01:35:36.915Z,19.80
2019-05-22T01:38:18.993Z,13.77
2019-05-22T01:41:01.090Z,15.53
2019-05-22T01:43:43.537Z,21.53
2019-05-22T01:46:25.319Z,14.87
2019-05-22T01:49:06.879Z,17.07
2019-05-22T01:51:47.855Z,14.63
2019-05-22T01:54:28.070Z,17.40
2019-05-22T01:57:10.336Z,22.37
2019-05-22T01:59:51.341Z,12.87
2019-05-22T02:02:33.873Z,17.50
2019-05-22T02:05:14.102Z,16.87
2019-05-22T02:07:55.519Z,16.57
2019-05-22T02:10:36.839Z,18.23
2019-05-22T02:13:19.241Z,19.80
2019-05-22T02:16:00.486Z,22.30
2019-05-22T02:18:41.870Z,17.83
2019-05-22T02:36:50.350Z,16.83
2019-05-22T02:51:31.678Z,24.07
2019-05-22T02:57:17.962Z,23.47
2019-05-22T03:06:30.779Z,13.93
2019-05-22T03:09:13.007Z,22.00
2019-05-22T03:11:54.714Z,28.73
2019-05-22T03:14:35.746Z,19.93
2019-05-22T03:17:17.019Z,20.67
2019-05-22T03:19:57.925Z,17.63
2019-05-22T03:22:40.570Z,22.97
2019-05-22T03:25:22.453Z,25.77
2019-05-22T03:28:02.903Z,23.73
2019-05-22T03:30:45.217Z,26.87
2019-05-22T03:33:26.507Z,30.10
2019-05-22T03:36:07.974Z,28.93
2019-05-22T03:38:49.556Z,23.60
2019-05-22T03:41:30.840Z,25.47
2019-05-22T03:44:11.457Z,22.63
2019-05-22T03:46:52.356Z,19.53
2019-05-22T03:49:32.922Z,23.20
2019-05-22T03:52:15.132Z,27.13
2019-05-22T03:54:55.809Z,14.43
2019-05-22T03:57:36.994Z,19.80
2019-05-22T04:00:19.524Z,18.77
2019-05-22T04:03:00.507Z,21.83
2019-05-22T04:05:40.936Z,19.57
2019-05-22T04:14:24.789Z,22.73
2019-05-22T04:17:03.099Z,21.27
2019-05-22T04:29:09.555Z,20.90
2019-05-22T04:35:26.588Z,19.97
2019-05-22T04:41:22.899Z,22.83
2019-05-22T04:47:05.774Z,23.27
2019-05-22T04:50:06.749Z,24.57
2019-05-22T04:52:43.054Z,23.03
2019-05-22T05:04:19.902Z,24.03
2019-05-22T05:13:18.382Z,23.27
2019-05-22T05:19:08.183Z,21.53
2019-05-22T05:21:48.641Z,20.47
2019-05-22T05:24:29.402Z,20.97
2019-05-22T05:27:10.743Z,21.33
2019-05-22T05:29:50.974Z,23.43
2019-05-22T05:32:32.111Z,22.20
2019-05-22T05:35:13.779Z,24.10
2019-05-22T05:37:54.279Z,27.93
2019-05-22T05:40:36.145Z,21.60
2019-05-22T05:43:17.101Z,21.53
2019-05-22T05:45:57.991Z,20.50
2019-05-22T05:48:38.583Z,21.50
2019-05-22T05:51:19.286Z,22.17
2019-05-22T05:54:02.368Z,30.30
2019-05-22T05:56:43.341Z,19.80
2019-05-22T05:59:25.581Z,20.80
2019-05-22T06:02:07.009Z,18.20
2019-05-22T06:04:47.998Z,10.27
2019-05-22T06:07:28.887Z,15.53
2019-05-22T06:10:09.315Z,23.17
2019-05-22T06:12:50.517Z,21.87
2019-05-22T06:15:45.876Z,20.70
2019-05-22T06:18:13.691Z,17.53
2019-05-22T06:21:03.196Z,17.10
2019-05-22T06:23:37.018Z,10.27
2019-05-22T06:26:18.175Z,20.23
2019-05-22T06:28:59.446Z,18.60
2019-05-22T06:31:40.314Z,17.47
2019-05-22T06:34:21.288Z,21.10
2019-05-22T06:37:02.234Z,16.37
2019-05-22T06:39:43.235Z,17.60
2019-05-22T06:42:24.220Z,18.60
2019-05-22T06:45:05.415Z,18.17
2019-05-22T06:47:48.020Z,19.93
2019-05-22T06:50:28.738Z,20.23
2019-05-22T06:53:10.281Z,22.47
2019-05-22T06:55:50.675Z,19.00
2019-05-22T06:58:31.194Z,14.10
2019-05-22T07:01:11.926Z,17.57
2019-05-22T07:03:52.834Z,16.20
2019-05-22T07:06:33.723Z,15.03
2019-05-22T07:09:14.498Z,14.13
2019-05-22T07:11:55.638Z,19.53
2019-05-22T07:14:36.285Z,14.47
2019-05-22T07:17:18.676Z,25.40
2019-05-22T07:19:59.663Z,19.23
2019-05-22T07:22:40.354Z,19.33
2019-05-22T07:25:21.228Z,20.00
2019-05-22T07:28:02.470Z,21.97
2019-05-22T07:30:42.950Z,20.63
2019-05-22T07:33:23.684Z,24.40
2019-05-22T07:36:16.013Z,14.93
2019-05-22T07:38:46.795Z,21.00
2019-05-22T07:41:27.416Z,22.10
2019-05-22T07:44:07.913Z,20.40
2019-05-22T07:46:48.919Z,19.53
2019-05-22T07:49:30.262Z,18.03
2019-05-22T07:52:11.422Z,11.67
2019-05-22T07:54:52.345Z,19.77
2019-05-22T07:57:33.055Z,16.53
2019-05-22T08:00:14.486Z,20.27
2019-05-22T08:02:56.204Z,15.60
2019-05-22T08:05:37.264Z,18.70
2019-05-22T08:08:18.790Z,18.00
2019-05-22T08:10:59.938Z,18.13
2019-05-22T08:13:41.280Z,19.87
2019-05-22T08:16:49.951Z,34.07
2019-05-22T08:19:38.070Z,13.80
2019-05-22T08:22:25.841Z,17.17
2019-05-22T08:25:14.291Z,16.30
2019-05-22T08:28:02.119Z,20.60
2019-05-22T08:30:50.331Z,12.30
2019-05-22T08:37:07.728Z,8.03
2019-05-22T08:39:55.538Z,6.63
2019-05-22T08:42:43.716Z,13.90
2019-05-22T08:51:34.706Z,11.00
2019-05-22T08:54:22.530Z,18.07
2019-05-22T08:57:10.683Z,15.83
2019-05-22T09:03:01.231Z,12.50
2019-05-22T09:05:42.086Z,15.53
2019-05-22T09:08:23.096Z,14.80
2019-05-22T09:11:04.031Z,10.00
2019-05-22T09:13:45.088Z,15.43
2019-05-22T09:16:25.779Z,14.80
2019-05-22T09:19:06.485Z,17.83
2019-05-22T09:21:47.283Z,14.70
2019-05-22T09:24:28.316Z,14.93
2019-05-22T09:27:09.053Z,17.77
2019-05-22T09:29:49.438Z,17.90
2019-05-22T09:32:30.479Z,6.87
2019-05-22T09:35:11.334Z,10.00
2019-05-22T09:40:50.856Z,15.40
2019-05-22T09:43:32.307Z,9.50
2019-05-22T09:46:13.689Z,15.47
2019-05-22T09:48:53.989Z,8.17
2019-05-22T09:51:34.987Z,14.80
2019-05-22T09:54:15.473Z,8.60
2019-05-22T09:56:56.617Z,14.23
2019-05-22T09:59:37.326Z,12.77
2019-05-22T10:02:18.092Z,16.30
2019-05-22T10:04:59.214Z,8.37
2019-05-22T10:07:57.209Z,6.17
2019-05-22T10:10:25.203Z,12.17
2019-05-22T10:13:06.600Z,11.93
2019-05-22T10:15:46.982Z,5.13
2019-05-22T10:18:27.994Z,29.50
2019-05-22T10:21:08.848Z,14.07
2019-05-22T10:23:50.542Z,8.73
2019-05-22T10:26:31.267Z,7.87
2019-05-22T10:29:12.077Z,12.53
2019-05-22T10:31:53.179Z,16.67
2019-05-22T10:34:34.109Z,7.80
2019-05-22T10:37:15.581Z,8.47
2019-05-22T10:39:54.431Z,11.30
2019-05-22T10:48:31.878Z,9.57
2019-05-22T10:51:19.712Z,7.13
2019-05-22T10:54:08.005Z,9.83
2019-05-22T10:56:55.827Z,6.83
2019-05-22T10:59:43.834Z,6.10
2019-05-22T11:08:40.349Z,8.93
2019-05-22T11:11:21.064Z,6.67
2019-05-22T11:14:02.314Z,11.30
2019-05-22T11:16:42.757Z,11.20
2019-05-22T11:19:23.512Z,9.13
2019-05-22T11:22:03.946Z,11.17
2019-05-22T11:24:44.615Z,10.00
2019-05-22T11:27:25.475Z,7.60
2019-05-22T11:30:06.395Z,13.93
2019-05-22T11:32:47.170Z,8.50
2019-05-22T11:35:27.466Z,13.73
2019-05-22T11:38:08.323Z,8.27
2019-05-22T11:40:49.086Z,9.47
2019-05-22T11:43:30.814Z,7.63
2019-05-22T11:46:12.079Z,7.47
2019-05-22T11:48:52.805Z,9.90
2019-05-22T11:51:33.312Z,9.57
2019-05-22T11:54:14.157Z,46.67
2019-05-22T11:56:55.014Z,10.50
2019-05-22T11:59:36.789Z,11.77
2019-05-22T12:02:17.537Z,10.37
2019-05-22T12:04:57.903Z,35.17
2019-05-22T12:07:38.714Z,3.80
2019-05-22T12:10:20.528Z,6.33
2019-05-22T12:13:01.284Z,5.83
2019-05-22T12:15:41.611Z,10.27
2019-05-22T12:18:22.797Z,5.37
2019-05-22T12:21:03.434Z,11.33
2019-05-22T12:23:44.271Z,6.87
2019-05-22T12:26:25.046Z,4.80
2019-05-22T12:29:05.738Z,5.90
2019-05-22T12:31:46.497Z,5.20
2019-05-22T12:34:27.451Z,9.10
2019-05-22T12:37:09.131Z,5.77
2019-05-22T12:39:49.739Z,7.37
2019-05-22T12:42:30.106Z,4.40
2019-05-22T12:45:11.130Z,5.33
2019-05-22T12:50:34.639Z,5.20
2019-05-22T12:53:17.221Z,4.20
2019-05-22T12:55:58.607Z,9.77
2019-05-22T12:58:39.219Z,9.77
2019-05-22T13:01:20.063Z,8.97
2019-05-22T13:04:02.411Z,5.53
2019-05-22T13:06:44.643Z,6.67
2019-05-22T13:09:25.542Z,4.80
2019-05-22T13:12:06.952Z,5.10
2019-05-22T13:14:48.726Z,2.47
2019-05-22T13:17:30.185Z,12.73
2019-05-22T13:20:12.824Z,7.03
2019-05-22T13:22:53.627Z,9.10
2019-05-22T13:25:34.665Z,5.97
2019-05-22T13:31:05.900Z,15.00
2019-05-22T13:33:49.402Z,11.07
2019-05-22T13:36:30.545Z,8.43
2019-05-22T13:39:13.005Z,10.40
2019-05-22T13:41:54.752Z,13.00
2019-05-22T13:44:35.362Z,7.20
2019-05-22T13:47:17.750Z,8.83
2019-05-22T13:49:58.994Z,20.07
2019-05-22T13:52:40.849Z,12.30
2019-05-22T13:55:23.749Z,24.93
2019-05-22T13:58:05.741Z,26.43
2019-05-22T14:00:46.201Z,2.33
2019-05-22T14:03:27.366Z,6.00
2019-05-22T14:06:09.329Z,2.17
2019-05-22T14:08:50.482Z,18.63
2019-05-22T14:11:31.353Z,13.87
2019-05-22T14:13:59.883Z,2.33
2019-05-22T14:16:49.343Z,4.87
2019-05-22T14:19:49.331Z,10.83
2019-05-22T14:22:27.008Z,10.60
2019-05-22T14:31:09.357Z,7.90
2019-05-22T14:33:57.158Z,46.73
2019-05-22T14:39:39.752Z,10.43
2019-05-22T14:42:27.530Z,5.60
2019-05-22T14:45:15.497Z,8.37
2019-05-22T14:48:03.712Z,7.63
2019-05-22T14:50:51.576Z,11.63
2019-05-22T14:59:40.500Z,7.80
2019-05-22T15:02:21.276Z,6.70
2019-05-22T15:05:02.671Z,16.73
2019-05-22T15:07:43.906Z,8.33
2019-05-22T15:10:25.017Z,5.13
2019-05-22T15:13:05.515Z,7.57
2019-05-22T15:15:46.427Z,6.97
2019-05-22T15:18:27.501Z,10.80
2019-05-22T15:21:09.579Z,6.20
2019-05-22T15:23:50.851Z,6.87
2019-05-22T15:26:32.050Z,2.80
2019-05-22T15:29:12.825Z,6.93
2019-05-22T15:31:54.562Z,5.43
2019-05-22T15:34:35.663Z,8.17
2019-05-22T15:37:16.310Z,6.03
2019-05-22T15:39:57.965Z,5.07
2019-05-22T15:42:39.040Z,5.90
2019-05-22T15:45:10.838Z,6.57
2019-05-22T15:47:53.151Z,4.97
2019-05-22T15:50:13.237Z,5.43
2019-05-22T15:52:43.073Z,7.57
2019-05-22T15:55:13.223Z,6.97
2019-05-22T15:57:42.811Z,7.23
2019-05-22T16:00:15.781Z,6.23
2019-05-22T16:02:45.855Z,8.00
2019-05-22T16:05:18.118Z,5.90
2019-05-22T16:07:48.955Z,6.07
2019-05-22T16:10:20.574Z,6.97
2019-05-22T16:12:49.323Z,7.00
2019-05-22T16:15:19.469Z,9.30
2019-05-22T16:17:51.010Z,10.37
2019-05-22T16:20:22.716Z,8.90
2019-05-22T16:22:51.983Z,4.07
2019-05-22T16:25:23.524Z,1.53
2019-05-22T16:27:53.606Z,2.53
2019-05-22T16:30:23.488Z,2.33
2019-05-22T16:32:53.546Z,3.27
2019-05-22T16:35:22.057Z,3.20
2019-05-22T16:37:51.328Z,8.33
2019-05-22T16:40:20.924Z,3.60
2019-05-22T16:42:50.306Z,2.87
2019-05-22T16:45:19.298Z,10.30
2019-05-22T16:47:48.153Z,5.60
2019-05-22T16:50:17.926Z,10.87
2019-05-22T16:52:47.381Z,2.23
2019-05-22T16:55:17.010Z,5.50
2019-05-22T16:57:46.074Z,6.60
2019-05-22T17:00:15.641Z,3.83
2019-05-22T17:02:44.798Z,6.43
2019-05-22T17:05:15.006Z,9.43
2019-05-22T17:07:44.041Z,4.33
2019-05-22T17:10:14.237Z,9.23
2019-05-22T17:12:43.701Z,7.97
2019-05-22T17:15:15.147Z,2.37
2019-05-22T17:17:44.076Z,5.37
2019-05-22T17:20:15.021Z,2.37
2019-05-22T17:22:43.915Z,5.30
2019-05-22T17:25:14.227Z,11.17
2019-05-22T17:27:44.735Z,7.97
2019-05-22T17:30:20.501Z,5.07
2019-05-22T17:32:45.902Z,10.97
2019-05-22T17:35:15.666Z,7.47
2019-05-22T17:37:45.144Z,6.20
2019-05-22T17:40:15.850Z,6.17
2019-05-22T17:42:45.875Z,3.90
2019-05-22T17:45:16.533Z,3.30
2019-05-22T17:47:45.430Z,4.07
2019-05-22T17:50:26.150Z,6.70
2019-05-22T17:52:46.537Z,7.20
2019-05-22T17:55:17.417Z,8.07
2019-05-22T17:57:46.581Z,6.37
2019-05-22T18:00:20.260Z,6.20
2019-05-22T18:02:48.860Z,4.63
2019-05-22T18:05:18.708Z,7.33
2019-05-22T18:07:47.646Z,7.10
2019-05-22T18:10:16.473Z,4.40
2019-05-22T18:12:45.261Z,6.10
2019-05-22T18:15:15.797Z,10.00
2019-05-22T18:17:44.972Z,4.07
2019-05-22T18:20:14.639Z,1.63
2019-05-22T18:22:43.066Z,3.73
2019-05-22T18:25:11.841Z,5.57
2019-05-22T18:27:40.626Z,6.57
2019-05-22T18:30:10.911Z,5.17
2019-05-22T18:32:42.174Z,6.77
2019-05-22T18:35:13.727Z,8.67
2019-05-22T18:37:42.357Z,2.37
2019-05-22T18:40:11.640Z,6.00
2019-05-22T18:42:40.167Z,7.00
2019-05-22T18:45:09.952Z,8.70
2019-05-22T18:47:38.464Z,8.00
2019-05-22T18:50:07.629Z,5.97
2019-05-22T18:52:40.953Z,6.47
2019-05-22T18:55:07.631Z,4.93
2019-05-22T18:57:36.274Z,4.57
2019-05-22T19:00:07.872Z,9.07
2019-05-22T19:02:36.690Z,4.90
2019-05-22T19:05:06.646Z,2.83
2019-05-22T19:07:35.533Z,3.07
2019-05-22T19:10:06.109Z,9.10
2019-05-22T19:12:34.884Z,7.93
2019-05-22T19:15:04.188Z,5.47
2019-05-22T19:17:33.238Z,5.67
2019-05-22T19:20:01.871Z,8.60
2019-05-22T19:22:30.613Z,2.77
2019-05-22T19:24:59.134Z,5.93
2019-05-22T19:27:27.820Z,7.83
2019-05-22T19:29:56.257Z,7.90
2019-05-22T19:32:24.777Z,3.50
2019-05-22T19:34:53.529Z,5.43
2019-05-22T19:37:21.954Z,2.63
2019-05-22T19:39:50.777Z,4.63
2019-05-22T19:42:19.279Z,5.57
2019-05-22T19:44:47.943Z,5.40
2019-05-22T19:47:17.157Z,8.33
2019-05-22T19:49:45.985Z,8.07
2019-05-22T19:52:15.418Z,6.67
2019-05-22T19:54:44.448Z,4.60
2019-05-22T19:57:12.881Z,4.60
2019-05-22T19:59:41.682Z,9.73
2019-05-22T20:02:11.566Z,6.97
2019-05-22T20:04:40.857Z,6.83
2019-05-22T20:07:11.003Z,7.07
2019-05-22T20:09:39.516Z,6.13
2019-05-22T20:12:08.701Z,7.80
2019-05-22T20:14:37.277Z,7.77
2019-05-22T20:17:06.722Z,6.73
2019-05-22T20:19:35.346Z,7.97
2019-05-22T20:22:05.148Z,7.73
2019-05-22T20:24:33.709Z,6.33
2019-05-22T20:27:02.774Z,4.47
2019-05-22T20:29:31.483Z,7.80
2019-05-22T20:32:00.078Z,9.03
2019-05-22T20:34:29.217Z,6.47
2019-05-22T20:36:57.680Z,4.70
2019-05-22T20:39:29.986Z,5.90
2019-05-22T20:41:58.783Z,7.23
2019-05-22T20:44:28.705Z,5.80
2019-05-22T20:46:57.205Z,3.40
2019-05-22T20:49:26.442Z,7.67
2019-05-22T20:51:54.876Z,6.93
2019-05-22T20:54:24.445Z,5.80
2019-05-22T20:56:53.660Z,6.50
2019-05-22T20:59:22.227Z,8.70
2019-05-22T21:01:51.348Z,5.97
2019-05-22T21:04:20.317Z,8.20
2019-05-22T21:06:54.485Z,5.33
2019-05-22T21:09:23.234Z,6.37
2019-05-22T21:11:52.021Z,4.73
2019-05-22T21:14:20.539Z,5.43
2019-05-22T21:16:49.579Z,6.93
2019-05-22T21:19:18.355Z,4.50
2019-05-22T21:21:48.096Z,6.23
2019-05-22T21:24:16.676Z,6.83
2019-05-22T21:26:45.745Z,5.40
2019-05-22T21:29:14.498Z,9.03
2019-05-22T21:31:47.490Z,6.37
2019-05-22T21:34:14.952Z,6.67
2019-05-22T21:36:43.557Z,8.93
2019-05-22T21:39:13.075Z,9.13
2019-05-22T21:41:42.413Z,6.13
2019-05-22T21:44:11.464Z,5.43
2019-05-22T21:46:41.326Z,5.73
2019-05-22T21:49:12.151Z,8.50
2019-05-22T21:51:41.091Z,6.73
2019-05-22T21:54:09.755Z,7.33
2019-05-22T21:56:39.213Z,6.43
2019-05-22T21:59:08.542Z,8.70
2019-05-22T22:01:38.802Z,6.23
2019-05-22T22:04:12.833Z,5.80
2019-05-22T22:06:42.888Z,10.40
2019-05-22T22:09:12.081Z,7.07
2019-05-22T22:11:40.881Z,8.27
2019-05-22T22:14:09.781Z,4.93
2019-05-22T22:16:39.626Z,7.10
2019-05-22T22:19:09.775Z,6.60
2019-05-22T22:21:39.839Z,6.87
2019-05-22T22:24:09.489Z,6.00
2019-05-22T22:26:38.090Z,6.00
2019-05-22T22:29:07.792Z,6.70
2019-05-22T22:31:36.227Z,5.93
2019-05-22T22:34:07.822Z,5.20
2019-05-22T22:36:36.255Z,6.13
2019-05-22T22:39:08.003Z,5.10
2019-05-22T22:41:36.670Z,7.40
2019-05-22T22:44:05.296Z,8.27
2019-05-22T22:46:51.892Z,8.93
2019-05-22T22:49:26.543Z,8.10
2019-05-22T22:51:56.704Z,8.27
2019-05-22T22:54:25.859Z,6.33
2019-05-22T22:56:54.571Z,8.63
2019-05-22T22:59:23.418Z,4.90
2019-05-22T23:01:53.603Z,5.57
2019-05-22T23:04:24.531Z,6.20
2019-05-22T23:06:55.643Z,6.53
2019-05-22T23:09:24.561Z,5.60
2019-05-22T23:11:54.978Z,8.73
2019-05-22T23:14:24.181Z,7.80
2019-05-22T23:16:53.035Z,10.10
2019-05-22T23:19:34.314Z,6.60
2019-05-22T23:22:03.404Z,6.90
2019-05-22T23:24:34.333Z,8.07
2019-05-22T23:27:03.577Z,6.57
2019-05-22T23:29:32.761Z,6.03
2019-05-22T23:32:02.385Z,4.90
2019-05-22T23:34:32.258Z,7.43
2019-05-22T23:37:02.728Z,7.37
2019-05-22T23:39:32.418Z,6.93
2019-05-22T23:42:04.675Z,7.23
2019-05-22T23:44:37.389Z,7.43
2019-05-22T23:47:07.743Z,6.87
2019-05-22T23:49:37.137Z,6.97
2019-05-22T23:52:06.804Z,7.67
2019-05-22T23:54:35.871Z,6.97
2019-05-22T23:57:05.396Z,10.50
2019-05-22T23:59:35.969Z,8.17
